台北 の空港の天気 - METARとTAF

台湾桃園国際空港 ( RCTP / TPE ) - 中華民国(台湾) 台北市
飛行場実況気象(Metar)
観測時間05/28 03:00 CST (05/27 19:00 UTC)
風向・風速東 6m/s
視程10km以上
天気現象
少しの雲 雲底高度 610m
全天の8割程度の雲 雲底高度 3350m
気温24℃
湿度78%
気圧1008hPa
METARRCTP 271900Z 10011KT 070V130 9999 FEW020 BKN110 24/20 Q1008 NOSIG RMK A2977
過去の天気等 Google飛行場航空写真 Wunderground天気予報

過去48時間のMETAR

飛行場予報(TAF)
発表時間: 5/28 01:00 CST (5/27 17:00 UTC)
予報対象時間: 28日2時 CST ~ 29日8時 CST
風向・風速東 5m/s
視程10km以上
少しの雲 雲底高度 460m
全天の4割程度の雲 雲底高度 1,520m
28日4時 CST ~ 28日8時 CST に一時的に
視程5,000m
天気現象
少しの雲 雲底高度 370m
全天の8割程度の雲 雲底高度 980m
全天の8割程度の雲 雲底高度 1,830m
28日8時 CST ~ 28日10時 CST に徐々に
風向・風速東北東 6m/s
28日20時 CST ~ 28日22時 CST に徐々に
風向・風速東 3m/s
少しの雲 雲底高度 370m
全天の8割程度の雲 雲底高度 980m
全天の8割程度の雲 雲底高度 1,830m
TAF RCTP 271700Z 2718/2824 10010KT 9999 FEW015 SCT050
TEMPO 2720/2724 5000 RA FEW012 BKN032 BKN060
BECMG 2800/2802 06012KT
BECMG 2812/2814 10005KT FEW012 BKN032 BKN060